createdAt,value
2022-08-03T00:00:24.940Z,20.97
2022-08-03T00:04:34.110Z,20.93
2022-08-03T00:08:40.379Z,20.91
2022-08-03T00:12:43.761Z,20.84
2022-08-03T00:16:47.411Z,20.82
2022-08-03T00:20:52.051Z,20.78
2022-08-03T00:24:55.041Z,20.74
2022-08-03T00:28:58.605Z,20.69
2022-08-03T00:33:01.916Z,20.65
2022-08-03T00:37:06.966Z,20.61
2022-08-03T00:41:12.889Z,20.56
2022-08-03T00:45:20.445Z,20.55
2022-08-03T00:49:23.578Z,20.49
2022-08-03T00:53:29.631Z,20.45
2022-08-03T00:57:34.069Z,20.38
2022-08-03T01:01:37.931Z,20.30
2022-08-03T01:05:48.748Z,20.22
2022-08-03T01:10:04.729Z,20.15
2022-08-03T01:14:19.170Z,20.09
2022-08-03T01:18:30.849Z,20.05
2022-08-03T01:23:04.677Z,20.02
2022-08-03T01:27:14.297Z,20.00
2022-08-03T01:31:26.213Z,19.97
2022-08-03T01:35:38.355Z,19.98
2022-08-03T01:39:44.717Z,19.99
2022-08-03T01:44:28.359Z,20.00
2022-08-03T01:48:19.157Z,20.01
2022-08-03T01:52:22.917Z,19.99
2022-08-03T01:56:28.131Z,19.96
2022-08-03T02:00:33.076Z,19.95
2022-08-03T02:04:40.486Z,19.93
2022-08-03T02:08:46.348Z,19.90
2022-08-03T02:12:51.437Z,19.88
2022-08-03T02:16:56.598Z,19.87
2022-08-03T02:21:05.492Z,19.86
2022-08-03T02:25:16.421Z,19.85
2022-08-03T02:29:38.809Z,19.84
2022-08-03T02:33:47.278Z,19.82
2022-08-03T02:38:00.071Z,19.79
2022-08-03T02:42:03.765Z,19.75
2022-08-03T02:46:09.955Z,19.71
2022-08-03T02:50:16.738Z,19.69
2022-08-03T02:54:23.701Z,19.68
2022-08-03T02:58:27.609Z,19.62
2022-08-03T03:02:32.162Z,19.55
2022-08-03T03:06:37.567Z,19.47
2022-08-03T03:10:45.628Z,19.40
2022-08-03T03:14:49.248Z,19.34
2022-08-03T03:18:52.951Z,19.29
2022-08-03T03:22:57.999Z,19.26
2022-08-03T03:27:06.413Z,19.24
2022-08-03T03:31:11.037Z,19.23
2022-08-03T03:35:17.228Z,19.21
2022-08-03T03:39:20.809Z,19.19
2022-08-03T03:43:26.140Z,19.15
2022-08-03T03:47:32.342Z,19.09
2022-08-03T03:51:36.872Z,19.07
2022-08-03T03:55:59.275Z,19.05
2022-08-03T04:00:07.155Z,19.05
2022-08-03T04:04:24.052Z,19.05
2022-08-03T04:08:44.794Z,19.09
2022-08-03T04:12:55.021Z,19.13
2022-08-03T04:17:02.721Z,19.22
2022-08-03T04:21:11.842Z,19.29
2022-08-03T04:25:20.036Z,19.39
2022-08-03T04:29:25.709Z,19.47
2022-08-03T04:33:35.016Z,19.54
2022-08-03T04:37:41.697Z,19.59
2022-08-03T04:42:07.311Z,19.66
2022-08-03T04:46:10.927Z,19.76
2022-08-03T04:50:21.231Z,19.86
2022-08-03T04:54:24.933Z,19.95
2022-08-03T04:58:28.968Z,20.03
2022-08-03T05:02:34.292Z,20.10
2022-08-03T05:06:47.921Z,20.20
2022-08-03T05:10:52.180Z,20.26
2022-08-03T05:14:56.541Z,20.34
2022-08-03T05:18:59.530Z,20.43
2022-08-03T05:23:04.702Z,20.49
2022-08-03T05:27:08.264Z,20.56
2022-08-03T05:31:12.279Z,20.64
2022-08-03T05:36:00.903Z,20.71
2022-08-03T05:39:40.896Z,20.78
2022-08-03T05:43:44.685Z,20.85
2022-08-03T05:47:48.214Z,20.94
2022-08-03T05:52:00.013Z,21.02
2022-08-03T05:56:14.466Z,21.12
2022-08-03T06:00:20.207Z,21.22
2022-08-03T06:04:24.970Z,21.30
2022-08-03T06:08:28.725Z,21.41
2022-08-03T06:12:36.111Z,21.55
2022-08-03T06:16:39.664Z,21.68
2022-08-03T06:20:43.143Z,21.82
2022-08-03T06:24:53.471Z,21.97
2022-08-03T06:28:58.638Z,22.14
2022-08-03T06:33:02.771Z,22.35
2022-08-03T06:37:06.235Z,22.56
2022-08-03T06:41:09.730Z,22.81
2022-08-03T06:45:14.752Z,23.14
2022-08-03T06:49:18.441Z,23.55
2022-08-03T06:53:21.671Z,24.03
2022-08-03T06:57:25.420Z,24.60
2022-08-03T07:01:29.812Z,25.25
2022-08-03T07:05:35.768Z,25.93
2022-08-03T07:09:38.811Z,26.62
2022-08-03T07:13:45.208Z,27.28
2022-08-03T07:17:49.692Z,27.93
2022-08-03T07:21:53.664Z,28.56
2022-08-03T07:25:56.927Z,29.16
2022-08-03T07:30:01.415Z,29.67
2022-08-03T07:34:09.629Z,30.14
2022-08-03T07:38:12.706Z,30.59
2022-08-03T07:42:16.317Z,30.98
2022-08-03T07:46:19.533Z,31.36
2022-08-03T07:50:25.100Z,31.75
2022-08-03T07:54:28.785Z,32.11
2022-08-03T07:58:32.269Z,32.52
2022-08-03T08:02:35.413Z,32.93
2022-08-03T08:06:40.290Z,33.32
2022-08-03T08:10:58.246Z,33.65
2022-08-03T08:15:02.634Z,33.96
2022-08-03T08:19:05.631Z,34.22
2022-08-03T08:23:41.545Z,34.45
2022-08-03T08:28:31.930Z,34.51
2022-08-03T08:31:58.420Z,34.57
2022-08-03T08:36:02.183Z,34.67
2022-08-03T08:40:09.942Z,34.87
2022-08-03T08:44:13.084Z,35.02
2022-08-03T08:48:20.143Z,35.24
2022-08-03T08:52:31.814Z,35.42
2022-08-03T08:56:37.590Z,35.68
2022-08-03T09:00:40.753Z,35.88
2022-08-03T09:04:45.984Z,36.03
2022-08-03T09:08:49.559Z,36.12
2022-08-03T09:12:54.641Z,36.22
2022-08-03T09:17:01.618Z,36.17
2022-08-03T09:21:30.649Z,36.21
2022-08-03T09:25:36.608Z,36.28
2022-08-03T09:29:43.770Z,36.42
2022-08-03T09:33:50.651Z,36.59
2022-08-03T09:38:13.556Z,36.79
2022-08-03T09:42:23.717Z,36.91
2022-08-03T09:46:32.217Z,37.00
2022-08-03T09:50:57.106Z,37.15
2022-08-03T09:56:32.688Z,37.31
2022-08-03T09:59:41.177Z,37.48
2022-08-03T10:04:04.390Z,37.67
2022-08-03T10:08:16.812Z,37.84
2022-08-03T10:12:20.090Z,38.06
2022-08-03T10:16:25.494Z,38.21
2022-08-03T10:20:31.083Z,38.39
2022-08-03T10:24:37.906Z,38.48
2022-08-03T10:28:45.286Z,38.58
2022-08-03T10:32:58.362Z,38.56
2022-08-03T10:37:11.449Z,38.56
2022-08-03T10:41:15.601Z,38.52
2022-08-03T10:45:27.256Z,38.50
2022-08-03T10:49:34.731Z,38.49
2022-08-03T10:53:44.140Z,38.56
2022-08-03T10:57:59.260Z,38.60
2022-08-03T11:02:02.599Z,38.65
2022-08-03T11:06:19.151Z,38.73
2022-08-03T11:10:33.384Z,38.82
2022-08-03T11:14:48.775Z,38.84
2022-08-03T11:19:00.495Z,38.86
2022-08-03T11:23:03.853Z,38.95
2022-08-03T11:27:25.788Z,38.99
2022-08-03T11:31:51.936Z,39.08
2022-08-03T11:36:02.580Z,39.20
2022-08-03T11:40:08.128Z,39.29
2022-08-03T11:44:41.733Z,39.45
2022-08-03T11:48:52.728Z,39.55
2022-08-03T11:52:56.490Z,39.62
2022-08-03T11:57:00.252Z,39.72
2022-08-03T12:01:19.998Z,39.77
2022-08-03T12:05:51.193Z,39.70
2022-08-03T12:10:11.345Z,39.62
2022-08-03T12:14:48.889Z,39.65
2022-08-03T12:18:43.809Z,39.69
2022-08-03T12:22:47.342Z,39.65
2022-08-03T12:26:59.555Z,39.61
2022-08-03T12:31:06.898Z,39.63
2022-08-03T12:35:12.494Z,39.70
2022-08-03T12:39:15.992Z,39.74
2022-08-03T12:43:20.054Z,39.71
2022-08-03T12:47:23.480Z,39.53
2022-08-03T12:51:28.865Z,39.34
2022-08-03T12:55:57.229Z,39.21
2022-08-03T13:00:21.228Z,39.15
2022-08-03T13:04:35.336Z,39.10
2022-08-03T13:08:39.955Z,39.10
2022-08-03T13:12:50.075Z,39.17
2022-08-03T13:16:54.021Z,39.27
2022-08-03T13:20:57.503Z,39.39
2022-08-03T13:25:03.651Z,39.47
2022-08-03T13:29:07.914Z,39.54
2022-08-03T13:33:11.393Z,39.59
2022-08-03T13:37:15.223Z,39.58
2022-08-03T13:41:20.105Z,39.47
2022-08-03T13:45:34.246Z,39.30
2022-08-03T13:49:37.863Z,39.17
2022-08-03T13:53:41.388Z,39.18
2022-08-03T13:58:02.973Z,39.31
2022-08-03T14:02:10.273Z,39.50
2022-08-03T14:06:13.629Z,39.61
2022-08-03T14:10:18.158Z,39.67
2022-08-03T14:14:23.509Z,39.81
2022-08-03T14:18:33.869Z,39.97
2022-08-03T14:22:37.911Z,40.09
2022-08-03T14:26:41.085Z,40.17
2022-08-03T14:30:46.058Z,40.23
2022-08-03T14:34:49.480Z,40.13
2022-08-03T14:38:53.162Z,40.01
2022-08-03T14:42:59.039Z,39.91
2022-08-03T14:47:03.632Z,39.89
2022-08-03T14:51:07.690Z,39.93
2022-08-03T14:55:12.085Z,39.99
2022-08-03T14:59:15.595Z,40.12
2022-08-03T15:03:23.733Z,40.23
2022-08-03T15:07:27.195Z,40.26
2022-08-03T15:11:30.163Z,40.21
2022-08-03T15:15:33.749Z,40.14
2022-08-03T15:20:01.028Z,40.09
2022-08-03T15:24:01.856Z,40.03
2022-08-03T15:28:05.777Z,39.93
2022-08-03T15:32:09.786Z,39.80
2022-08-03T15:36:14.816Z,39.69
2022-08-03T15:40:17.957Z,39.57
2022-08-03T15:44:21.769Z,39.46
2022-08-03T15:48:26.536Z,39.39
2022-08-03T15:52:31.965Z,39.32
2022-08-03T15:56:35.129Z,39.24
2022-08-03T16:00:39.033Z,39.14
2022-08-03T16:04:42.733Z,39.03
2022-08-03T16:08:49.093Z,38.90
2022-08-03T16:12:52.940Z,38.77
2022-08-03T16:16:56.046Z,38.64
2022-08-03T16:20:59.487Z,38.52
2022-08-03T16:25:04.421Z,38.41
2022-08-03T16:29:22.629Z,38.31
2022-08-03T16:33:27.376Z,38.19
2022-08-03T16:37:39.336Z,38.03
2022-08-03T16:41:54.243Z,37.85
2022-08-03T16:46:06.269Z,37.67
2022-08-03T16:50:17.252Z,37.44
2022-08-03T16:54:23.116Z,37.20
2022-08-03T16:58:41.646Z,36.93
2022-08-03T17:02:49.076Z,36.63
2022-08-03T17:06:52.358Z,36.31
2022-08-03T17:10:56.605Z,36.01
2022-08-03T17:15:01.425Z,35.69
2022-08-03T17:19:08.009Z,35.39
2022-08-03T17:23:34.695Z,35.08
2022-08-03T17:28:49.199Z,34.72
2022-08-03T17:32:09.766Z,34.43
2022-08-03T17:36:20.550Z,34.14
2022-08-03T17:49:24.799Z,33.23
2022-08-03T17:53:30.823Z,32.95
2022-08-03T17:58:02.195Z,32.69
2022-08-03T18:02:30.809Z,32.48
2022-08-03T18:06:55.571Z,32.19
2022-08-03T18:11:09.651Z,31.89
2022-08-03T18:15:25.564Z,31.64
2022-08-03T18:20:01.034Z,31.40
2022-08-03T18:23:56.679Z,31.17
2022-08-03T18:28:06.428Z,30.93
2022-08-03T18:32:16.999Z,30.68
2022-08-03T18:36:29.981Z,30.47
2022-08-03T18:40:35.439Z,30.21
2022-08-03T18:44:52.984Z,29.98
2022-08-03T18:49:08.290Z,29.77
2022-08-03T18:53:19.563Z,29.55
2022-08-03T18:57:41.859Z,29.33
2022-08-03T19:01:58.200Z,29.11
2022-08-03T19:06:13.362Z,28.88
2022-08-03T19:10:20.741Z,28.63
2022-08-03T19:14:35.902Z,28.39
2022-08-03T19:18:49.701Z,28.13
2022-08-03T19:22:53.961Z,27.90
2022-08-03T19:26:57.795Z,27.70
2022-08-03T19:31:06.245Z,27.54
2022-08-03T19:35:18.817Z,27.38
2022-08-03T19:39:22.212Z,27.27
2022-08-03T19:43:33.126Z,27.14
2022-08-03T19:47:59.989Z,26.99
2022-08-03T19:52:04.853Z,26.86
2022-08-03T19:56:08.303Z,26.76
2022-08-03T20:00:13.914Z,26.65
2022-08-03T20:04:20.991Z,26.57
2022-08-03T20:08:24.537Z,26.47
2022-08-03T20:12:29.195Z,26.39
2022-08-03T20:16:32.762Z,26.29
2022-08-03T20:20:39.263Z,26.22
2022-08-03T20:24:50.750Z,26.12
2022-08-03T20:28:59.417Z,26.03
2022-08-03T20:33:18.779Z,25.94
2022-08-03T20:37:23.791Z,25.90
2022-08-03T20:41:27.571Z,25.85
2022-08-03T20:45:58.388Z,25.82
2022-08-03T20:49:54.819Z,25.78
2022-08-03T20:54:03.043Z,25.76
2022-08-03T20:58:08.582Z,25.72
2022-08-03T21:02:13.344Z,25.68
2022-08-03T21:06:27.925Z,25.63
2022-08-03T21:10:37.933Z,25.58
2022-08-03T21:14:51.915Z,25.49
2022-08-03T21:18:59.876Z,25.39
2022-08-03T21:23:03.872Z,25.30
2022-08-03T21:27:09.212Z,25.22
2022-08-03T21:31:13.369Z,25.14
2022-08-03T21:35:18.609Z,25.07
2022-08-03T21:39:21.727Z,24.99
2022-08-03T21:43:27.046Z,24.96
2022-08-03T21:47:30.662Z,24.92
2022-08-03T21:51:36.662Z,24.93
2022-08-03T21:55:41.576Z,24.89
2022-08-03T21:59:53.111Z,24.87
2022-08-03T22:03:58.518Z,24.80
2022-08-03T22:08:02.213Z,24.71
2022-08-03T22:12:06.911Z,24.64
2022-08-03T22:16:13.312Z,24.58
2022-08-03T22:20:16.670Z,24.53
2022-08-03T22:24:23.943Z,24.48
2022-08-03T22:28:31.703Z,24.44
2022-08-03T22:32:38.392Z,24.38
2022-08-03T22:36:43.018Z,24.33
2022-08-03T22:40:49.452Z,24.27
2022-08-03T22:44:55.413Z,24.21
2022-08-03T22:49:01.541Z,24.14
2022-08-03T22:53:05.410Z,24.10
2022-08-03T22:57:09.323Z,24.04
2022-08-03T23:01:14.665Z,23.98
2022-08-03T23:06:00.839Z,23.94
2022-08-03T23:09:50.826Z,23.88
2022-08-03T23:13:55.186Z,23.82
2022-08-03T23:17:59.414Z,23.75
2022-08-03T23:22:05.727Z,23.72
2022-08-03T23:26:09.545Z,23.64
2022-08-03T23:30:15.410Z,23.60
2022-08-03T23:34:38.780Z,23.52
2022-08-03T23:38:44.657Z,23.45
2022-08-03T23:42:50.525Z,23.36
2022-08-03T23:46:54.287Z,23.30
2022-08-03T23:51:01.641Z,23.24
2022-08-03T23:55:22.216Z,23.16
2022-08-03T23:59:33.332Z,23.08
